createdAt,value
2023-01-29T00:01:46.000Z,-0.70
2023-01-29T00:04:47.739Z,-0.70
2023-01-29T00:07:49.678Z,-0.70
2023-01-29T00:10:51.720Z,-0.70
2023-01-29T00:13:53.995Z,-0.80
2023-01-29T00:16:55.869Z,-0.70
2023-01-29T00:19:57.635Z,-0.80
2023-01-29T00:22:59.610Z,-0.80
2023-01-29T00:26:01.310Z,-0.70
2023-01-29T00:29:03.026Z,-0.70
2023-01-29T00:32:05.186Z,-0.80
2023-01-29T00:35:08.485Z,-0.80
2023-01-29T00:38:10.267Z,-0.80
2023-01-29T00:41:33.252Z,-0.80
2023-01-29T00:44:53.711Z,-0.80
2023-01-29T00:47:55.504Z,-0.70
2023-01-29T00:50:57.260Z,-0.60
2023-01-29T00:53:59.091Z,-0.50
2023-01-29T00:57:02.287Z,-0.50
2023-01-29T01:00:11.918Z,-0.60
2023-01-29T01:03:13.621Z,-0.50
2023-01-29T01:06:15.338Z,-0.50
2023-01-29T01:09:35.890Z,-0.50
2023-01-29T01:12:37.600Z,-0.50
2023-01-29T01:15:40.373Z,-0.50
2023-01-29T01:18:42.864Z,-0.50
2023-01-29T01:21:47.000Z,-0.50
2023-01-29T01:24:48.703Z,-0.60
2023-01-29T01:31:09.889Z,-0.60
2023-01-29T01:34:11.732Z,-0.60
2023-01-29T01:37:13.511Z,-0.60
2023-01-29T01:40:18.994Z,-0.60
2023-01-29T01:43:20.965Z,-0.70
2023-01-29T01:46:23.146Z,-0.70
2023-01-29T01:49:25.958Z,-0.70
2023-01-29T01:52:29.079Z,-0.60
2023-01-29T01:55:34.187Z,-0.70
2023-01-29T01:58:46.989Z,-0.60
2023-01-29T02:01:53.936Z,-0.60
2023-01-29T02:05:14.270Z,-0.60
2023-01-29T02:08:39.358Z,-0.60
2023-01-29T02:11:41.284Z,-0.60
2023-01-29T02:14:44.236Z,-0.60
2023-01-29T02:17:48.238Z,-0.50
2023-01-29T02:21:25.087Z,-0.50
2023-01-29T02:24:42.353Z,-0.50
2023-01-29T02:28:11.160Z,-0.40
2023-01-29T02:31:19.820Z,-0.30
2023-01-29T02:34:27.578Z,-0.30
2023-01-29T02:37:59.630Z,-0.30
2023-01-29T02:41:12.646Z,-0.20
2023-01-29T02:44:24.721Z,-0.20
2023-01-29T02:47:43.551Z,-0.20
2023-01-29T02:50:57.886Z,-0.20
2023-01-29T02:54:12.050Z,-0.20
2023-01-29T02:57:29.136Z,-0.10
2023-01-29T03:00:36.079Z,0.00
2023-01-29T03:03:44.533Z,-0.10
2023-01-29T03:06:55.290Z,-0.10
2023-01-29T03:09:57.946Z,0.00
2023-01-29T03:13:13.132Z,0.00
2023-01-29T03:16:22.358Z,0.00
2023-01-29T03:19:39.759Z,0.00
2023-01-29T03:23:01.743Z,0.00
2023-01-29T03:26:24.677Z,0.10
2023-01-29T03:29:45.700Z,0.20
2023-01-29T03:32:51.908Z,0.20
2023-01-29T03:36:02.394Z,0.10
2023-01-29T03:39:09.423Z,0.20
2023-01-29T03:42:29.828Z,0.10
2023-01-29T03:45:50.137Z,0.20
2023-01-29T03:49:01.414Z,0.20
2023-01-29T03:52:18.161Z,0.20
2023-01-29T03:55:42.965Z,0.20
2023-01-29T03:59:19.056Z,0.20
2023-01-29T04:02:55.648Z,0.20
2023-01-29T04:06:09.816Z,0.20
2023-01-29T04:09:28.226Z,0.10
2023-01-29T04:12:38.017Z,0.20
2023-01-29T04:15:49.103Z,0.20
2023-01-29T04:18:54.224Z,0.10
2023-01-29T04:22:13.822Z,0.10
2023-01-29T04:25:29.441Z,0.20
2023-01-29T04:28:47.994Z,0.10
2023-01-29T04:32:03.300Z,0.20
2023-01-29T04:35:17.566Z,0.20
2023-01-29T04:38:54.645Z,0.30
2023-01-29T04:42:21.302Z,0.20
2023-01-29T04:45:54.664Z,0.20
2023-01-29T04:49:14.661Z,0.30
2023-01-29T04:52:37.830Z,0.20
2023-01-29T04:55:49.579Z,0.30
2023-01-29T04:59:07.548Z,0.30
2023-01-29T05:02:11.958Z,0.20
2023-01-29T05:05:16.445Z,0.30
2023-01-29T05:08:21.428Z,0.30
2023-01-29T05:11:24.961Z,0.30
2023-01-29T05:14:30.364Z,0.30
2023-01-29T05:17:32.182Z,0.30
2023-01-29T05:20:36.500Z,0.40
2023-01-29T05:23:38.375Z,0.30
2023-01-29T05:27:00.613Z,0.30
2023-01-29T05:30:02.503Z,0.30
2023-01-29T05:33:05.722Z,0.30
2023-01-29T05:36:09.399Z,0.30
2023-01-29T05:39:11.149Z,0.30
2023-01-29T05:42:12.859Z,0.30
2023-01-29T05:45:14.655Z,0.30
2023-01-29T05:48:16.362Z,0.40
2023-01-29T05:51:18.067Z,0.40
2023-01-29T05:54:19.805Z,0.40
2023-01-29T05:57:22.095Z,0.40
2023-01-29T06:00:24.057Z,0.40
2023-01-29T06:03:25.799Z,0.40
2023-01-29T06:06:27.611Z,0.40
2023-01-29T06:09:29.408Z,0.40
2023-01-29T06:12:31.159Z,0.50
2023-01-29T06:15:32.863Z,0.50
2023-01-29T06:18:36.258Z,0.50
2023-01-29T06:21:37.976Z,0.50
2023-01-29T06:24:39.681Z,0.40
2023-01-29T06:27:41.415Z,0.40
2023-01-29T06:30:43.115Z,0.40
2023-01-29T06:33:45.032Z,0.40
2023-01-29T06:36:46.733Z,0.40
2023-01-29T06:39:48.454Z,0.50
2023-01-29T06:42:50.231Z,0.40
2023-01-29T06:45:54.080Z,0.50
2023-01-29T06:48:59.430Z,1.40
2023-01-29T06:52:01.158Z,0.50
2023-01-29T06:55:02.875Z,0.60
2023-01-29T06:58:09.158Z,0.60
2023-01-29T07:01:22.164Z,0.50
2023-01-29T07:04:31.045Z,0.60
2023-01-29T07:07:35.575Z,0.50
2023-01-29T07:10:37.288Z,0.60
2023-01-29T07:13:39.020Z,0.60
2023-01-29T07:16:40.817Z,0.60
2023-01-29T07:19:42.517Z,0.60
2023-01-29T07:22:44.212Z,0.60
2023-01-29T07:25:46.230Z,0.60
2023-01-29T07:28:47.965Z,0.70
2023-01-29T07:31:49.768Z,0.70
2023-01-29T07:34:51.537Z,0.70
2023-01-29T07:37:53.243Z,0.60
2023-01-29T07:40:55.140Z,0.60
2023-01-29T07:43:56.929Z,0.60
2023-01-29T07:46:58.683Z,0.60
2023-01-29T07:50:00.694Z,0.60
2023-01-29T07:53:02.783Z,0.60
2023-01-29T07:56:04.768Z,0.60
2023-01-29T07:59:06.569Z,0.60
2023-01-29T08:02:09.846Z,0.60
2023-01-29T08:05:11.538Z,0.60
2023-01-29T08:08:14.058Z,0.60
2023-01-29T08:11:15.864Z,0.60
2023-01-29T08:14:17.642Z,0.60
2023-01-29T08:17:19.424Z,0.60
2023-01-29T08:20:22.219Z,0.60
2023-01-29T08:23:23.924Z,0.70
2023-01-29T08:26:27.203Z,0.70
2023-01-29T08:29:28.932Z,0.60
2023-01-29T08:32:30.645Z,0.60
2023-01-29T08:35:32.387Z,0.60
2023-01-29T08:38:34.104Z,0.60
2023-01-29T08:41:35.817Z,0.60
2023-01-29T08:44:37.537Z,0.60
2023-01-29T08:47:44.656Z,0.70
2023-01-29T08:50:46.434Z,0.70
2023-01-29T08:53:49.146Z,0.80
2023-01-29T08:56:51.867Z,0.80
2023-01-29T08:59:53.563Z,0.70
2023-01-29T09:02:55.262Z,0.70
2023-01-29T09:05:56.942Z,0.80
2023-01-29T09:08:58.665Z,0.80
2023-01-29T09:12:00.358Z,0.80
2023-01-29T09:15:02.072Z,0.90
2023-01-29T09:18:05.309Z,0.90
2023-01-29T09:21:07.099Z,0.90
2023-01-29T09:24:08.899Z,0.90
2023-01-29T09:27:10.919Z,0.90
2023-01-29T09:30:13.002Z,1.00
2023-01-29T09:33:14.819Z,1.00
2023-01-29T09:36:16.580Z,1.00
2023-01-29T09:39:18.276Z,1.10
2023-01-29T09:42:26.681Z,1.00
2023-01-29T09:45:29.496Z,1.00
2023-01-29T09:48:34.432Z,1.10
2023-01-29T09:51:41.838Z,1.00
2023-01-29T09:55:23.472Z,1.10
2023-01-29T09:58:35.747Z,1.10
2023-01-29T10:01:55.486Z,1.10
2023-01-29T10:05:20.907Z,1.20
2023-01-29T10:08:30.537Z,1.20
2023-01-29T10:11:47.327Z,1.20
2023-01-29T10:14:54.793Z,1.30
2023-01-29T10:17:59.332Z,1.30
2023-01-29T10:21:12.790Z,1.30
2023-01-29T10:24:37.713Z,1.30
2023-01-29T10:27:42.080Z,1.30
2023-01-29T10:30:50.285Z,1.40
2023-01-29T10:34:03.182Z,1.30
2023-01-29T10:37:24.537Z,1.30
2023-01-29T10:40:46.939Z,1.40
2023-01-29T10:44:31.144Z,1.30
2023-01-29T10:47:32.893Z,1.30
2023-01-29T10:50:34.624Z,1.40
2023-01-29T10:54:04.506Z,0.80
2023-01-29T10:57:40.887Z,1.40
2023-01-29T11:00:42.748Z,1.50
2023-01-29T11:03:44.766Z,1.50
2023-01-29T11:06:46.615Z,1.60
2023-01-29T11:10:20.461Z,1.60
2023-01-29T11:13:24.647Z,1.60
2023-01-29T11:16:29.783Z,1.60
2023-01-29T11:19:42.450Z,1.60
2023-01-29T11:22:54.193Z,1.70
2023-01-29T11:25:57.885Z,1.70
2023-01-29T11:28:59.627Z,1.70
2023-01-29T11:32:06.415Z,1.80
2023-01-29T11:35:22.555Z,1.80
2023-01-29T11:38:26.916Z,1.80
2023-01-29T11:41:28.632Z,1.90
2023-01-29T11:44:33.533Z,1.90
2023-01-29T11:47:35.396Z,1.90
2023-01-29T11:50:37.314Z,2.00
2023-01-29T11:53:45.710Z,2.00
2023-01-29T11:56:48.747Z,2.10
2023-01-29T11:59:52.305Z,2.20
2023-01-29T12:03:18.513Z,2.10
2023-01-29T12:06:24.568Z,2.10
2023-01-29T12:09:28.153Z,2.00
2023-01-29T12:12:39.924Z,2.00
2023-01-29T12:15:42.771Z,2.00
2023-01-29T12:18:54.604Z,2.00
2023-01-29T12:22:03.737Z,2.00
2023-01-29T12:25:18.982Z,2.00
2023-01-29T12:28:47.257Z,2.10
2023-01-29T12:32:18.155Z,2.10
2023-01-29T12:35:35.463Z,2.30
2023-01-29T12:38:37.318Z,2.20
2023-01-29T12:41:54.660Z,2.20
2023-01-29T12:45:07.954Z,2.20
2023-01-29T12:48:14.491Z,2.30
2023-01-29T12:51:20.279Z,2.30
2023-01-29T12:54:32.584Z,2.40
2023-01-29T12:57:55.256Z,2.40
2023-01-29T13:01:03.241Z,2.40
2023-01-29T13:04:43.310Z,2.30
2023-01-29T13:07:50.094Z,2.30
2023-01-29T13:10:54.731Z,2.30
2023-01-29T13:14:01.003Z,2.40
2023-01-29T13:17:22.584Z,2.30
2023-01-29T13:20:30.266Z,2.30
2023-01-29T13:23:40.188Z,2.30
2023-01-29T13:26:48.716Z,2.30
2023-01-29T13:29:50.691Z,2.30
2023-01-29T13:32:54.807Z,2.30
2023-01-29T13:36:00.173Z,2.30
2023-01-29T13:39:16.220Z,2.40
2023-01-29T13:42:21.120Z,2.30
2023-01-29T13:45:24.444Z,2.40
2023-01-29T13:48:32.428Z,2.30
2023-01-29T13:51:36.746Z,2.40
2023-01-29T13:54:38.455Z,2.40
2023-01-29T13:57:48.837Z,2.40
2023-01-29T14:00:51.182Z,2.40
2023-01-29T14:04:04.969Z,2.40
2023-01-29T14:07:44.977Z,2.40
2023-01-29T14:11:06.689Z,2.40
2023-01-29T14:15:00.815Z,2.40
2023-01-29T14:18:02.478Z,2.30
2023-01-29T14:21:07.070Z,2.40
2023-01-29T14:24:21.865Z,2.30
2023-01-29T14:27:27.699Z,2.30
2023-01-29T14:30:32.381Z,2.30
2023-01-29T14:33:37.868Z,2.30
2023-01-29T14:36:44.872Z,2.30
2023-01-29T14:39:55.827Z,2.30
2023-01-29T14:43:02.751Z,2.30
2023-01-29T14:46:44.057Z,2.30
2023-01-29T14:49:56.954Z,2.30
2023-01-29T14:53:34.221Z,2.30
2023-01-29T14:56:58.459Z,2.30
2023-01-29T15:00:05.985Z,2.30
2023-01-29T15:03:18.233Z,2.40
2023-01-29T15:06:45.871Z,2.40
2023-01-29T15:10:21.859Z,2.40
2023-01-29T15:13:50.289Z,2.40
2023-01-29T15:17:00.739Z,2.40
2023-01-29T15:20:02.578Z,2.50
2023-01-29T15:23:23.694Z,2.40
2023-01-29T15:26:27.183Z,2.40
2023-01-29T15:29:29.763Z,2.40
2023-01-29T15:32:35.124Z,2.50
2023-01-29T15:35:39.487Z,2.40
2023-01-29T15:38:41.339Z,2.40
2023-01-29T15:41:44.098Z,2.40
2023-01-29T15:44:46.575Z,2.40
2023-01-29T15:47:48.791Z,2.40
2023-01-29T15:50:54.596Z,2.40
2023-01-29T15:54:05.819Z,2.40
2023-01-29T15:57:22.417Z,2.30
2023-01-29T16:00:27.608Z,2.40
2023-01-29T16:03:33.292Z,2.40
2023-01-29T16:06:40.134Z,2.40
2023-01-29T16:09:43.086Z,2.40
2023-01-29T16:12:47.346Z,2.40
2023-01-29T16:16:00.524Z,2.40
2023-01-29T16:19:14.262Z,2.40
2023-01-29T16:22:16.305Z,2.40
2023-01-29T16:25:18.304Z,2.40
2023-01-29T16:28:20.732Z,2.50
2023-01-29T16:31:26.497Z,2.50
2023-01-29T16:34:32.958Z,2.50
2023-01-29T16:37:36.342Z,2.50
2023-01-29T16:40:38.840Z,2.50
2023-01-29T16:43:49.579Z,2.40
2023-01-29T16:46:52.160Z,2.50
2023-01-29T16:50:00.604Z,2.40
2023-01-29T16:53:03.751Z,2.40
2023-01-29T16:56:08.235Z,2.40
2023-01-29T16:59:18.503Z,2.40
2023-01-29T17:02:27.356Z,2.50
2023-01-29T17:05:33.314Z,2.50
2023-01-29T17:08:35.519Z,2.50
2023-01-29T17:11:39.857Z,2.50
2023-01-29T17:14:56.398Z,2.50
2023-01-29T17:17:58.122Z,2.50
2023-01-29T17:20:59.819Z,2.50
2023-01-29T17:24:01.630Z,2.50
2023-01-29T17:27:03.482Z,2.50
2023-01-29T17:30:05.708Z,2.50
2023-01-29T17:33:22.796Z,2.50
2023-01-29T17:36:25.518Z,2.50
2023-01-29T17:39:27.486Z,2.50
2023-01-29T17:42:29.255Z,2.50
2023-01-29T17:45:31.149Z,2.60
2023-01-29T17:48:32.908Z,2.60
2023-01-29T17:51:34.629Z,2.60
2023-01-29T17:54:36.531Z,2.60
2023-01-29T17:57:38.264Z,2.60
2023-01-29T18:00:40.027Z,2.60
2023-01-29T18:03:41.818Z,2.60
2023-01-29T18:06:45.089Z,2.60
2023-01-29T18:09:46.920Z,2.60
2023-01-29T18:12:48.644Z,2.60
2023-01-29T18:15:50.947Z,2.60
2023-01-29T18:18:53.061Z,2.60
2023-01-29T18:21:54.832Z,2.70
2023-01-29T18:24:56.557Z,2.60
2023-01-29T18:27:58.318Z,2.70
2023-01-29T18:31:05.092Z,2.70
2023-01-29T18:34:07.198Z,2.70
2023-01-29T18:37:10.896Z,2.60
2023-01-29T18:40:14.091Z,2.60
2023-01-29T18:43:16.568Z,2.60
2023-01-29T18:46:19.085Z,2.60
2023-01-29T18:49:20.788Z,2.50
2023-01-29T18:52:22.655Z,2.50
2023-01-29T18:55:26.479Z,2.40
2023-01-29T18:58:35.140Z,2.40
2023-01-29T19:01:38.928Z,2.30
2023-01-29T19:04:42.062Z,2.30
2023-01-29T19:07:43.891Z,2.30
2023-01-29T19:10:46.066Z,2.30
2023-01-29T19:13:47.994Z,2.30
2023-01-29T19:16:50.230Z,2.30
2023-01-29T19:19:52.017Z,2.30
2023-01-29T19:22:53.686Z,2.30
2023-01-29T19:25:57.387Z,2.30
2023-01-29T19:28:59.640Z,2.30
2023-01-29T19:32:01.664Z,2.40
2023-01-29T19:35:03.488Z,2.40
2023-01-29T19:38:05.302Z,2.40
2023-01-29T19:41:07.106Z,2.50
2023-01-29T19:44:10.594Z,2.50
2023-01-29T19:47:12.332Z,2.50
2023-01-29T19:50:14.085Z,2.60
2023-01-29T19:53:15.768Z,2.60
2023-01-29T19:56:18.678Z,2.60
2023-01-29T19:59:20.733Z,2.60
2023-01-29T20:02:24.704Z,2.70
2023-01-29T20:05:27.023Z,2.70
2023-01-29T20:08:28.879Z,2.70
2023-01-29T20:11:31.109Z,2.70
2023-01-29T20:14:32.822Z,2.80
2023-01-29T20:17:34.541Z,2.80
2023-01-29T20:20:43.129Z,2.80
2023-01-29T20:23:45.957Z,2.80
2023-01-29T20:26:47.909Z,2.80
2023-01-29T20:29:51.843Z,2.90
2023-01-29T20:32:53.540Z,2.90
2023-01-29T20:35:57.200Z,2.90
2023-01-29T20:38:59.571Z,2.90
2023-01-29T20:42:01.314Z,2.90
2023-01-29T20:45:03.324Z,2.90
2023-01-29T20:48:05.101Z,2.90
2023-01-29T20:51:15.581Z,2.90
2023-01-29T20:54:17.443Z,2.90
2023-01-29T20:57:19.306Z,2.90
2023-01-29T21:00:21.287Z,3.00
2023-01-29T21:03:23.012Z,3.00
2023-01-29T21:06:25.398Z,3.00
2023-01-29T21:09:27.223Z,2.90
2023-01-29T21:12:28.915Z,2.90
2023-01-29T21:15:30.613Z,2.90
2023-01-29T21:18:32.343Z,2.90
2023-01-29T21:21:34.580Z,2.90
2023-01-29T21:24:36.286Z,3.00
2023-01-29T21:27:38.007Z,2.90
2023-01-29T21:30:39.794Z,3.00
2023-01-29T21:33:41.540Z,3.00
2023-01-29T21:36:43.321Z,3.00
2023-01-29T21:39:45.921Z,3.00
2023-01-29T21:43:06.470Z,3.10
2023-01-29T21:46:11.934Z,3.10
2023-01-29T21:49:13.903Z,3.10
2023-01-29T21:52:16.070Z,3.10
2023-01-29T21:55:17.794Z,3.20
2023-01-29T21:58:20.475Z,3.20
2023-01-29T22:01:36.559Z,3.20
2023-01-29T22:04:40.759Z,3.20
2023-01-29T22:07:42.538Z,3.20
2023-01-29T22:10:44.414Z,3.20
2023-01-29T22:13:47.039Z,3.20
2023-01-29T22:16:48.805Z,3.20
2023-01-29T22:19:50.646Z,3.20
2023-01-29T22:22:52.330Z,3.20
2023-01-29T22:25:54.232Z,3.20
2023-01-29T22:28:56.262Z,3.20
2023-01-29T22:31:58.115Z,3.20
2023-01-29T22:34:59.885Z,3.20
2023-01-29T22:38:01.987Z,3.20
2023-01-29T22:41:04.474Z,3.20
2023-01-29T22:44:06.202Z,3.30
2023-01-29T22:47:07.952Z,3.30
2023-01-29T22:50:10.447Z,3.20
2023-01-29T22:53:12.125Z,3.30
2023-01-29T22:56:13.920Z,3.30
2023-01-29T22:59:15.645Z,3.30
2023-01-29T23:02:17.343Z,3.30
2023-01-29T23:05:19.063Z,3.30
2023-01-29T23:08:20.811Z,3.30
2023-01-29T23:11:23.526Z,3.30
2023-01-29T23:14:25.334Z,3.40
2023-01-29T23:17:27.184Z,3.50
2023-01-29T23:20:28.888Z,3.50
2023-01-29T23:23:32.147Z,3.50
2023-01-29T23:26:53.055Z,3.40
2023-01-29T23:29:54.778Z,3.50
2023-01-29T23:32:56.489Z,3.50
2023-01-29T23:35:58.201Z,3.60
2023-01-29T23:38:59.917Z,3.50
2023-01-29T23:42:01.973Z,3.60
2023-01-29T23:45:03.896Z,3.60
2023-01-29T23:48:05.765Z,3.60
2023-01-29T23:51:07.503Z,3.60
2023-01-29T23:54:09.243Z,3.70
2023-01-29T23:57:10.958Z,3.70
